Time;durP1;ratioP1;P1;durP2;ratioP2;P2;SDS_P1;SDS_P2;PMS_P1;PMS_P2;Temp;Humidity;BMP_temperature;BMP_pressure;BME280_temperature;BME280_humidity;BME280_pressure;Samples;Min_cycle;Max_cycle;Signal;HPM_P1;HPM_P2
2021/07/02 00:00:32;;;;;;;14.13;8.45;;;15.60;99.90;;;;;;5061537;28;20166;-77
2021/07/02 00:03:15;;;;;;;14.45;7.38;;;15.70;99.90;;;;;;5067586;28;20881;-74
2021/07/02 00:05:51;;;;;;;16.92;9.25;;;15.70;99.90;;;;;;5065230;28;20443;-76
2021/07/02 00:08:28;;;;;;;15.25;9.00;;;15.70;99.90;;;;;;5085828;27;20165;-77
2021/07/02 00:11:06;;;;;;;17.80;9.32;;;15.60;99.90;;;;;;5071757;28;20389;-75
2021/07/02 00:13:43;;;;;;;14.25;8.27;;;15.60;99.90;;;;;;5057079;28;20162;-74
2021/07/02 00:16:19;;;;;;;18.88;10.13;;;15.70;99.90;;;;;;5132521;27;20140;-74
2021/07/02 00:18:56;;;;;;;13.25;8.15;;;15.70;99.90;;;;;;5087469;28;20256;-75
2021/07/02 00:21:31;;;;;;;14.32;9.23;;;15.70;99.90;;;;;;5083359;27;1319014;-76
2021/07/02 00:24:23;;;;;;;18.85;10.75;;;15.70;99.90;;;;;;5109549;27;20541;-75
2021/07/02 00:26:59;;;;;;;14.52;9.30;;;15.70;99.90;;;;;;5057479;28;20138;-76
2021/07/02 00:29:37;;;;;;;20.02;8.68;;;15.70;99.90;;;;;;5059362;28;20225;-74
2021/07/02 00:32:13;;;;;;;17.60;8.52;;;15.70;99.90;;;;;;5095466;27;1429227;-76
2021/07/02 00:34:49;;;;;;;15.32;9.40;;;15.80;99.90;;;;;;5098316;27;20417;-76
2021/07/02 00:37:26;;;;;;;15.60;8.77;;;15.70;99.90;;;;;;5089824;27;20152;-76
2021/07/02 00:40:03;;;;;;;14.63;8.82;;;15.80;99.90;;;;;;5084298;27;20196;-74
2021/07/02 00:43:33;;;;;;;15.93;8.65;;;15.80;99.90;;;;;;5108300;27;20449;-74
2021/07/02 00:46:11;;;;;;;16.17;8.07;;;15.80;99.90;;;;;;5063138;28;20406;-74
2021/07/02 00:48:47;;;;;;;17.20;9.07;;;15.80;99.90;;;;;;5107156;27;1303207;-74
2021/07/02 00:51:28;;;;;;;13.43;8.13;;;15.80;99.90;;;;;;5088508;27;20659;-76
2021/07/02 00:54:06;;;;;;;13.35;9.23;;;15.80;99.90;;;;;;5063883;28;20386;-76
2021/07/02 00:56:42;;;;;;;16.48;9.10;;;15.80;99.90;;;;;;5106030;27;20198;-77
2021/07/02 00:59:19;;;;;;;11.02;7.18;;;15.80;99.90;;;;;;5102305;27;20214;-76
2021/07/02 01:01:56;;;;;;;12.07;9.10;;;15.80;99.90;;;;;;5104414;27;20744;-76
2021/07/02 01:04:32;;;;;;;13.32;8.13;;;15.80;99.90;;;;;;5062596;28;20274;-74
2021/07/02 01:07:13;;;;;;;14.38;7.82;;;15.80;99.90;;;;;;5065473;28;20411;-74
2021/07/02 01:09:54;;;;;;;15.25;8.80;;;15.80;99.90;;;;;;5098328;27;20510;-75
2021/07/02 01:12:32;;;;;;;15.80;8.88;;;15.80;99.90;;;;;;5067322;28;20731;-74
2021/07/02 01:15:20;;;;;;;18.75;9.20;;;15.80;99.90;;;;;;5082755;27;20164;-76
2021/07/02 01:17:57;;;;;;;16.33;8.80;;;15.80;99.90;;;;;;5063773;28;20469;-74
2021/07/02 01:20:36;;;;;;;16.60;9.30;;;15.70;99.90;;;;;;5106238;27;20375;-76
2021/07/02 01:23:14;;;;;;;14.13;7.70;;;15.70;99.90;;;;;;5061188;28;20520;-74
2021/07/02 01:25:54;;;;;;;9.63;6.43;;;15.70;99.90;;;;;;5084273;28;20467;-74
2021/07/02 01:28:33;;;;;;;14.77;8.65;;;15.60;99.90;;;;;;5097953;27;1283224;-74
2021/07/02 01:31:09;;;;;;;18.50;9.25;;;15.70;99.90;;;;;;5065704;27;1955671;-74
2021/07/02 01:33:47;;;;;;;16.38;10.45;;;15.60;99.90;;;;;;5103992;27;20392;-74
2021/07/02 01:36:26;;;;;;;12.57;8.73;;;15.60;99.90;;;;;;5088207;27;20863;-74
2021/07/02 01:39:08;;;;;;;16.25;9.60;;;15.60;99.90;;;;;;5129880;27;20386;-74
2021/07/02 01:41:45;;;;;;;15.38;10.18;;;15.50;99.90;;;;;;5090103;27;1313287;-74
2021/07/02 01:44:23;;;;;;;15.07;9.38;;;15.50;99.90;;;;;;5153741;27;20384;-74
2021/07/02 01:47:01;;;;;;;16.33;9.30;;;15.40;99.90;;;;;;5072130;28;20407;-74
2021/07/02 01:49:39;;;;;;;17.48;10.57;;;15.40;99.90;;;;;;5058832;28;20516;-74
2021/07/02 01:52:15;;;;;;;17.85;10.35;;;15.40;99.90;;;;;;5088178;27;1351158;-76
2021/07/02 01:54:54;;;;;;;12.68;8.60;;;15.40;99.90;;;;;;5126271;27;20487;-74
2021/07/02 01:57:32;;;;;;;17.58;10.70;;;15.40;99.90;;;;;;5068718;28;20936;-77
2021/07/02 02:00:18;;;;;;;14.02;8.55;;;15.40;99.90;;;;;;5107749;27;20487;-74
2021/07/02 02:02:54;;;;;;;16.50;9.82;;;15.50;99.90;;;;;;5117810;27;1337846;-77
2021/07/02 02:05:32;;;;;;;15.43;9.95;;;15.50;99.90;;;;;;5067304;28;20848;-74
2021/07/02 02:08:10;;;;;;;12.10;8.55;;;15.50;99.90;;;;;;5088451;28;20781;-74
2021/07/02 02:10:50;;;;;;;17.20;9.25;;;15.50;99.90;;;;;;5110653;27;20438;-74
2021/07/02 02:13:29;;;;;;;15.60;9.88;;;15.50;99.90;;;;;;5069121;28;20436;-74
2021/07/02 02:16:18;;;;;;;19.40;9.45;;;15.50;99.90;;;;;;5109183;27;20112;-74
2021/07/02 02:19:00;;;;;;;16.75;7.68;;;15.50;99.90;;;;;;5067046;28;20896;-76
2021/07/02 02:21:37;;;;;;;17.38;8.88;;;15.50;99.90;;;;;;5107753;27;20586;-74
2021/07/02 02:24:14;;;;;;;13.50;8.95;;;15.50;99.90;;;;;;5066180;28;20216;-74
2021/07/02 02:26:52;;;;;;;11.98;7.82;;;15.50;99.90;;;;;;5109161;27;20828;-74
2021/07/02 02:29:30;;;;;;;14.38;8.77;;;15.40;99.90;;;;;;5065190;28;20397;-74
2021/07/02 02:32:08;;;;;;;17.13;9.57;;;15.50;99.90;;;;;;5053572;28;20422;-74
2021/07/02 02:34:45;;;;;;;15.68;9.65;;;15.40;99.90;;;;;;5088270;27;1290951;-74
2021/07/02 02:37:23;;;;;;;15.13;8.95;;;15.40;99.90;;;;;;5105890;27;20388;-76
2021/07/02 02:40:01;;;;;;;16.33;9.27;;;15.40;99.90;;;;;;5065810;28;20098;-74
2021/07/02 02:42:51;;;;;;;16.13;8.95;;;15.40;99.90;;;;;;5108387;27;20527;-74
2021/07/02 02:45:31;;;;;;;15.60;8.77;;;15.40;99.90;;;;;;5047768;28;20424;-74
2021/07/02 02:48:09;;;;;;;11.40;7.50;;;15.40;99.90;;;;;;5064148;28;20426;-74
2021/07/02 02:50:47;;;;;;;12.02;8.48;;;15.40;99.90;;;;;;5066641;28;20584;-74
2021/07/02 02:53:25;;;;;;;12.63;8.90;;;15.40;99.90;;;;;;5064943;28;20405;-76
2021/07/02 02:56:04;;;;;;;15.25;8.93;;;15.40;99.90;;;;;;5098452;27;1274810;-76
2021/07/02 02:58:40;;;;;;;17.67;10.38;;;15.40;99.90;;;;;;5061981;28;21314;-75
2021/07/02 03:01:19;;;;;;;12.98;8.40;;;15.40;99.90;;;;;;5064931;28;20442;-76
2021/07/02 03:03:57;;;;;;;16.02;9.60;;;15.40;99.90;;;;;;5060436;28;20426;-76
2021/07/02 03:06:33;;;;;;;15.00;9.68;;;15.30;99.90;;;;;;5117620;27;1298251;-74
2021/07/02 03:09:11;;;;;;;16.05;9.05;;;15.30;99.90;;;;;;5104859;27;20483;-74
2021/07/02 03:11:51;;;;;;;15.70;9.35;;;15.30;99.90;;;;;;5104573;27;20648;-74
2021/07/02 03:14:28;;;;;;;17.23;9.77;;;15.20;99.90;;;;;;5084130;27;20381;-76
2021/07/02 03:17:06;;;;;;;14.60;9.25;;;15.20;99.90;;;;;;5063116;28;20397;-74
2021/07/02 03:19:48;;;;;;;15.18;8.35;;;15.20;99.90;;;;;;5061018;28;21175;-74
2021/07/02 03:22:27;;;;;;;15.68;8.50;;;15.10;99.90;;;;;;5110565;27;20985;-76
2021/07/02 03:25:06;;;;;;;16.55;8.52;;;15.00;99.90;;;;;;5091522;27;20493;-76
2021/07/02 03:27:44;;;;;;;17.58;8.75;;;15.00;99.90;;;;;;5118822;27;20480;-74
2021/07/02 03:30:22;;;;;;;15.27;9.55;;;14.90;99.90;;;;;;5068593;28;20477;-76
2021/07/02 03:33:00;;;;;;;17.45;8.65;;;14.80;99.90;;;;;;5068769;28;20476;-76
2021/07/02 03:35:37;;;;;;;15.50;9.35;;;14.80;99.90;;;;;;5085290;27;20249;-74
2021/07/02 03:38:17;;;;;;;12.15;8.40;;;14.80;99.90;;;;;;5107338;27;20422;-76
2021/07/02 03:40:55;;;;;;;17.45;9.95;;;14.80;99.90;;;;;;5081652;27;20816;-75
2021/07/02 03:43:33;;;;;;;17.63;10.45;;;14.80;99.90;;;;;;5113098;27;20524;-74
2021/07/02 03:46:11;;;;;;;15.15;9.20;;;14.80;99.90;;;;;;5067841;28;20442;-75
2021/07/02 03:48:49;;;;;;;17.60;10.35;;;14.80;99.90;;;;;;5067520;28;21054;-76
2021/07/02 03:51:28;;;;;;;20.83;11.38;;;14.70;99.90;;;;;;5069301;28;20919;-74
2021/07/02 03:54:04;;;;;;;16.85;10.90;;;14.70;99.90;;;;;;5066953;28;20219;-74
2021/07/02 03:57:10;;;;;;;15.73;10.98;;;14.70;99.90;;;;;;5113881;27;20143;-74
2021/07/02 03:59:49;;;;;;;19.45;11.88;;;14.80;99.90;;;;;;5124794;27;20310;-74
2021/07/02 04:02:28;;;;;;;18.25;9.68;;;14.80;99.90;;;;;;5135105;27;20334;-77
2021/07/02 04:06:03;;;;;;;17.75;10.00;;;14.90;99.90;;;;;;5066477;28;20723;-74
2021/07/02 04:09:37;;;;;;;14.32;9.73;;;15.00;99.90;;;;;;5085730;27;1265618;-75
2021/07/02 04:12:17;;;;;;;15.50;9.77;;;15.00;99.90;;;;;;5070595;27;20473;-76
2021/07/02 04:14:55;;;;;;;13.68;9.98;;;15.10;99.90;;;;;;5065119;28;20422;-76
2021/07/02 04:17:30;;;;;;;20.23;11.18;;;15.10;99.90;;;;;;5095398;27;1270999;-75
2021/07/02 04:20:11;;;;;;;21.88;12.05;;;15.20;99.90;;;;;;5066956;28;20425;-75
2021/07/02 04:22:48;;;;;;;15.77;11.07;;;15.20;99.90;;;;;;5104742;27;21169;-75
2021/07/02 04:25:25;;;;;;;14.45;9.98;;;15.20;99.90;;;;;;5080692;27;1333049;-74
2021/07/02 04:28:03;;;;;;;20.52;11.88;;;15.20;99.90;;;;;;5061654;28;20484;-77
2021/07/02 04:30:40;;;;;;;21.98;13.02;;;15.20;99.90;;;;;;5065107;28;20134;-74
2021/07/02 04:33:15;;;;;;;19.92;13.65;;;15.20;99.90;;;;;;5078308;27;1302271;-74
2021/07/02 04:35:50;;;;;;;23.97;16.77;;;15.20;99.90;;;;;;5084782;27;1338912;-75
2021/07/02 04:38:26;;;;;;;21.17;13.90;;;15.20;99.90;;;;;;5071606;27;2012709;-77
2021/07/02 04:41:04;;;;;;;18.10;12.55;;;15.30;99.90;;;;;;5105742;27;20811;-76
2021/07/02 04:43:40;;;;;;;22.08;13.18;;;15.40;99.90;;;;;;5091587;27;1281809;-77
2021/07/02 04:46:16;;;;;;;20.35;13.00;;;15.40;99.90;;;;;;5100027;27;1296413;-74
2021/07/02 04:48:54;;;;;;;19.30;13.55;;;15.50;99.90;;;;;;5105947;27;20423;-75
2021/07/02 04:51:31;;;;;;;21.38;12.82;;;15.50;99.90;;;;;;5100365;27;1277795;-75
2021/07/02 04:54:08;;;;;;;17.85;12.63;;;15.50;99.90;;;;;;5106598;27;20398;-77
2021/07/02 04:56:48;;;;;;;21.42;13.63;;;15.50;99.90;;;;;;5068714;28;20572;-78
2021/07/02 04:59:34;;;;;;;16.75;11.45;;;15.50;99.90;;;;;;5115058;27;1309465;-75
2021/07/02 05:02:10;;;;;;;18.35;13.93;;;15.50;99.90;;;;;;5067693;27;1987374;-77
2021/07/02 05:04:45;;;;;;;18.65;11.77;;;15.50;99.90;;;;;;5106065;27;1264583;-75
2021/07/02 05:07:23;;;;;;;17.80;12.10;;;15.60;99.90;;;;;;5091329;27;20922;-76
2021/07/02 05:10:03;;;;;;;18.95;11.43;;;15.60;99.90;;;;;;5104376;27;20505;-77
2021/07/02 05:12:40;;;;;;;20.00;13.23;;;15.60;99.90;;;;;;5105414;27;20485;-76
2021/07/02 05:15:18;;;;;;;20.75;13.00;;;15.60;99.90;;;;;;5067574;28;20488;-74
2021/07/02 05:17:55;;;;;;;20.83;13.77;;;15.60;99.90;;;;;;5093409;27;1271466;-76
2021/07/02 05:20:33;;;;;;;18.75;13.07;;;15.60;99.90;;;;;;5060424;28;20586;-75
2021/07/02 05:23:10;;;;;;;21.48;12.45;;;15.70;99.90;;;;;;5063227;27;20231;-74
2021/07/02 05:25:48;;;;;;;16.38;12.32;;;15.70;99.90;;;;;;5061343;28;21156;-76
2021/07/02 05:28:24;;;;;;;16.63;12.35;;;15.70;99.90;;;;;;5066709;28;20236;-75
2021/07/02 05:31:01;;;;;;;19.23;12.80;;;15.70;99.90;;;;;;5077405;27;20187;-74
2021/07/02 05:33:39;;;;;;;25.90;13.75;;;15.70;99.90;;;;;;5108272;27;20444;-77
2021/07/02 05:36:16;;;;;;;19.02;13.13;;;15.70;99.90;;;;;;5092588;27;20713;-78
2021/07/02 05:38:52;;;;;;;21.77;13.93;;;15.60;99.90;;;;;;5066305;28;20294;-77
2021/07/02 05:41:29;;;;;;;16.35;11.23;;;15.60;99.90;;;;;;5061320;28;20170;-77
2021/07/02 05:44:05;;;;;;;21.40;13.00;;;15.60;99.90;;;;;;5108111;27;20209;-74
2021/07/02 05:46:42;;;;;;;20.58;13.43;;;15.60;99.90;;;;;;5074518;28;20254;-77
2021/07/02 05:49:19;;;;;;;24.13;14.80;;;15.70;99.90;;;;;;5064705;28;20602;-75
2021/07/02 05:51:57;;;;;;;21.90;14.10;;;15.90;99.90;;;;;;5109835;27;20802;-74
2021/07/02 05:54:33;;;;;;;19.85;13.60;;;16.20;99.90;;;;;;5068340;27;20169;-76
2021/07/02 05:57:10;;;;;;;22.42;14.85;;;16.40;99.90;;;;;;5109043;27;20206;-74
2021/07/02 05:59:46;;;;;;;25.50;14.32;;;16.60;99.90;;;;;;5064897;28;20593;-76
2021/07/02 06:02:23;;;;;;;21.75;13.95;;;16.90;99.90;;;;;;5106003;27;20282;-74
2021/07/02 06:05:00;;;;;;;20.60;14.52;;;17.20;99.90;;;;;;5066680;28;20197;-80
2021/07/02 06:08:03;;;;;;;19.63;13.93;;;17.50;99.90;;;;;;5065257;28;20861;-80
2021/07/02 06:10:39;;;;;;;20.70;13.52;;;17.70;99.90;;;;;;5102281;27;1258287;-81
2021/07/02 06:13:15;;;;;;;21.08;13.95;;;17.90;99.90;;;;;;5125141;27;1269952;-79
2021/07/02 06:15:52;;;;;;;18.67;12.18;;;18.10;99.90;;;;;;5120911;27;1289957;-80
2021/07/02 06:18:28;;;;;;;18.83;12.90;;;18.30;99.90;;;;;;5083920;28;20442;-82
2021/07/02 06:21:05;;;;;;;18.52;12.35;;;18.50;99.90;;;;;;5067388;28;20145;-79
2021/07/02 06:23:42;;;;;;;15.10;11.13;;;18.60;99.90;;;;;;5109136;27;20459;-80
2021/07/02 06:26:20;;;;;;;21.38;12.52;;;18.80;99.90;;;;;;5109359;27;20446;-79
2021/07/02 06:28:56;;;;;;;16.70;12.15;;;19.10;99.90;;;;;;5099916;27;20156;-80
2021/07/02 06:31:33;;;;;;;14.98;10.77;;;19.30;99.30;;;;;;5090357;27;20175;-79
2021/07/02 06:34:10;;;;;;;14.60;10.65;;;19.60;99.00;;;;;;5063147;28;20160;-77
2021/07/02 06:36:46;;;;;;;15.02;10.82;;;19.70;98.40;;;;;;5064588;28;20650;-78
2021/07/02 06:39:23;;;;;;;17.30;10.98;;;19.80;97.90;;;;;;5081116;27;20186;-79
2021/07/02 06:41:59;;;;;;;17.48;11.50;;;19.90;97.60;;;;;;5065884;28;20134;-79
2021/07/02 06:44:36;;;;;;;17.08;11.20;;;19.80;97.40;;;;;;5083036;28;20236;-78
2021/07/02 06:47:13;;;;;;;17.60;10.27;;;19.80;97.30;;;;;;5086256;27;20277;-78
2021/07/02 06:49:49;;;;;;;15.63;11.40;;;19.90;97.30;;;;;;5063076;28;20143;-79
2021/07/02 06:52:24;;;;;;;16.67;13.10;;;20.00;97.20;;;;;;5097190;27;1267524;-76
2021/07/02 06:55:01;;;;;;;13.85;10.15;;;20.00;96.50;;;;;;5064385;28;20450;-76
2021/07/02 06:57:36;;;;;;;15.02;10.80;;;20.00;96.60;;;;;;5098467;27;1266199;-77
2021/07/02 07:00:17;;;;;;;14.80;10.35;;;19.90;96.80;;;;;;5066640;28;20413;-78
2021/07/02 07:02:55;;;;;;;16.15;10.93;;;20.00;96.70;;;;;;5086889;27;20469;-78
2021/07/02 07:05:33;;;;;;;13.85;11.27;;;20.10;96.20;;;;;;5088527;28;20977;-79
2021/07/02 07:08:10;;;;;;;15.80;10.07;;;20.00;96.00;;;;;;5109747;27;20388;-78
2021/07/02 07:10:47;;;;;;;12.68;8.20;;;20.00;96.40;;;;;;5099939;27;20207;-77
2021/07/02 07:13:22;;;;;;;15.80;9.43;;;20.10;96.50;;;;;;5119251;27;1278775;-77
2021/07/02 07:16:00;;;;;;;11.82;9.02;;;20.20;96.30;;;;;;5091520;28;20449;-79
2021/07/02 07:18:35;;;;;;;16.52;11.57;;;20.40;96.20;;;;;;5081557;27;1273482;-79
2021/07/02 07:21:12;;;;;;;15.13;10.10;;;20.60;95.40;;;;;;5070303;28;20983;-78
2021/07/02 07:23:48;;;;;;;14.63;10.02;;;20.60;95.40;;;;;;5103874;27;20150;-78
2021/07/02 07:26:25;;;;;;;12.52;9.07;;;20.60;95.40;;;;;;5068178;28;20138;-81
2021/07/02 07:29:03;;;;;;;14.50;8.88;;;20.80;95.40;;;;;;5044508;28;20217;-79
2021/07/02 07:31:53;;;;;;;12.95;8.70;;;20.90;95.10;;;;;;5051655;28;20402;-79
2021/07/02 07:34:41;;;;;;;12.38;9.10;;;21.20;94.80;;;;;;5048319;28;20455;-79
2021/07/02 07:37:22;;;;;;;11.85;7.70;;;21.30;94.40;;;;;;5103360;27;20123;-77
2021/07/02 07:39:59;;;;;;;16.00;9.45;;;21.20;94.30;;;;;;5065756;28;20394;-77
2021/07/02 07:42:35;;;;;;;15.90;9.43;;;20.90;94.30;;;;;;5072782;28;20266;-76
2021/07/02 07:45:13;;;;;;;10.77;8.13;;;20.80;94.30;;;;;;5151668;27;20118;-74
2021/07/02 07:47:51;;;;;;;14.10;7.60;;;21.10;94.60;;;;;;5064939;27;20418;-75
2021/07/02 07:50:30;;;;;;;14.18;8.55;;;21.30;94.40;;;;;;5064966;27;20426;-75
2021/07/02 07:53:09;;;;;;;15.15;8.75;;;21.60;93.80;;;;;;5086265;27;20420;-74
2021/07/02 07:55:48;;;;;;;12.57;7.78;;;21.70;93.50;;;;;;5050438;28;20388;-75
2021/07/02 07:58:26;;;;;;;14.05;9.50;;;21.90;93.40;;;;;;5057529;28;20449;-79
2021/07/02 08:01:03;;;;;;;13.35;8.73;;;21.90;93.10;;;;;;5062398;28;20215;-78
2021/07/02 08:03:40;;;;;;;15.55;10.50;;;21.90;93.10;;;;;;5072653;27;1320958;-80
2021/07/02 08:06:15;;;;;;;14.38;8.93;;;22.10;93.00;;;;;;5067723;27;1264841;-78
2021/07/02 08:08:50;;;;;;;13.70;9.50;;;22.30;93.00;;;;;;5081876;27;1314636;-79
2021/07/02 08:11:26;;;;;;;12.85;8.85;;;22.50;92.70;;;;;;5097643;27;1347641;-78
2021/07/02 08:14:03;;;;;;;9.48;7.47;;;22.70;92.40;;;;;;5108484;27;20774;-78
2021/07/02 08:16:42;;;;;;;11.93;7.57;;;23.00;92.30;;;;;;5064934;28;20893;-78
2021/07/02 08:19:19;;;;;;;9.13;7.55;;;23.30;91.90;;;;;;5062168;28;20507;-78
2021/07/02 08:21:56;;;;;;;8.48;7.07;;;23.40;91.30;;;;;;5065431;28;20575;-78
2021/07/02 08:24:32;;;;;;;8.80;6.72;;;23.50;91.00;;;;;;5062530;28;20134;-78
2021/07/02 08:27:09;;;;;;;9.45;7.25;;;23.70;90.80;;;;;;5084970;27;20187;-77
2021/07/02 08:29:46;;;;;;;13.40;8.75;;;23.90;90.40;;;;;;5101872;27;20727;-78
2021/07/02 08:32:24;;;;;;;10.20;7.97;;;24.00;89.30;;;;;;5063018;28;20382;-79
2021/07/02 08:35:01;;;;;;;13.50;8.38;;;23.80;89.30;;;;;;5107646;27;1351586;-77
2021/07/02 08:37:38;;;;;;;9.88;6.53;;;23.40;89.50;;;;;;5064501;28;20418;-77
2021/07/02 08:40:15;;;;;;;12.07;8.77;;;23.10;90.10;;;;;;5065959;27;1303382;-77
2021/07/02 08:42:52;;;;;;;10.73;8.00;;;22.90;90.20;;;;;;5065888;28;20456;-77
2021/07/02 08:45:28;;;;;;;10.23;8.43;;;22.70;90.50;;;;;;5063476;28;20386;-79
2021/07/02 08:48:07;;;;;;;11.43;9.00;;;22.50;90.70;;;;;;5091998;27;20186;-78
2021/07/02 08:50:46;;;;;;;14.30;10.65;;;22.40;90.80;;;;;;5181230;27;20383;-75
2021/07/02 08:53:23;;;;;;;14.20;8.57;;;22.30;90.60;;;;;;5069194;28;20543;-79
2021/07/02 08:56:01;;;;;;;11.30;8.27;;;22.30;91.00;;;;;;5063178;28;20220;-78
2021/07/02 08:58:37;;;;;;;9.63;8.20;;;22.20;91.20;;;;;;5094476;27;1259820;-78
2021/07/02 09:01:33;;;;;;;7.80;6.75;;;22.30;91.40;;;;;;5145589;27;19915;-77
2021/07/02 09:04:17;;;;;;;26.92;7.72;;;22.80;91.30;;;;;;5100687;27;1253250;-74
2021/07/02 09:07:16;;;;;;;12.10;10.20;;;23.20;90.60;;;;;;5093064;27;20488;-74
2021/07/02 09:09:57;;;;;;;9.52;7.75;;;23.30;90.00;;;;;;5144388;27;20327;-76
2021/07/02 09:12:35;;;;;;;10.45;7.85;;;23.30;90.30;;;;;;5066733;28;20393;-74
2021/07/02 09:15:13;;;;;;;13.50;8.38;;;23.30;90.40;;;;;;5066365;28;21309;-75
2021/07/02 09:17:53;;;;;;;11.38;10.13;;;23.50;90.50;;;;;;5075611;27;1275464;-77
2021/07/02 09:20:36;;;;;;;13.18;9.48;;;24.00;90.00;;;;;;5091454;27;20436;-75
2021/07/02 09:23:15;;;;;;;15.60;9.10;;;24.50;88.70;;;;;;5090214;27;20419;-75
2021/07/02 09:25:53;;;;;;;12.57;9.65;;;24.60;87.90;;;;;;5093053;27;1262567;-76
2021/07/02 09:28:32;;;;;;;17.27;13.43;;;24.60;87.00;;;;;;5080740;27;20425;-76
2021/07/02 09:31:09;;;;;;;13.77;10.00;;;24.60;86.20;;;;;;5085341;28;20528;-77
2021/07/02 09:33:46;;;;;;;14.57;9.43;;;24.30;86.40;;;;;;5085532;27;20183;-76
2021/07/02 09:36:28;;;;;;;12.52;10.10;;;24.20;86.90;;;;;;5098299;27;1272465;-75
2021/07/02 09:39:29;;;;;;;12.65;10.35;;;24.10;87.20;;;;;;5109838;27;1353879;-76
2021/07/02 09:42:25;;;;;;;15.57;10.52;;;24.00;87.50;;;;;;5098326;27;20518;-75
2021/07/02 09:45:10;;;;;;;10.55;7.88;;;24.10;87.80;;;;;;5128271;27;20099;-75
2021/07/02 09:47:47;;;;;;;10.38;8.82;;;24.30;87.70;;;;;;5078425;27;1262275;-74
2021/07/02 09:50:18;;;;;;;8.88;7.32;;;24.50;86.60;;;;;;5100187;28;20036;-76
2021/07/02 09:52:46;;;;;;;11.82;7.90;;;24.70;86.10;;;;;;5091641;28;20047;-76
2021/07/02 09:55:14;;;;;;;9.25;6.43;;;25.00;86.20;;;;;;5102231;28;20032;-77
2021/07/02 09:57:41;;;;;;;9.25;7.47;;;25.20;84.90;;;;;;5086944;28;20039;-75
2021/07/02 10:00:10;;;;;;;9.75;7.40;;;25.30;84.20;;;;;;5086284;28;20043;-76
2021/07/02 10:03:09;;;;;;;10.27;8.57;;;25.40;83.50;;;;;;5105171;28;20398;-76
2021/07/02 10:05:53;;;;;;;9.60;8.35;;;25.50;82.90;;;;;;5077454;28;20044;-77
2021/07/02 10:08:25;;;;;;;12.23;10.18;;;25.40;82.90;;;;;;5065675;28;20521;-76
2021/07/02 10:10:51;;;;;;;;;;;25.20;83.40;;;;;;5077860;28;20027;-76
2021/07/02 10:13:27;;;;;;;11.65;10.07;;;25.10;84.10;;;;;;5104251;28;19965;-76
2021/07/02 10:15:55;;;;;;;16.58;12.65;;;24.90;84.20;;;;;;5059648;28;20059;-77
2021/07/02 10:18:24;;;;;;;12.77;11.27;;;25.00;84.60;;;;;;5076498;28;20044;-76
2021/07/02 10:20:51;;;;;;;15.43;12.13;;;25.00;84.10;;;;;;5086974;28;20082;-76
2021/07/02 10:23:35;;;;;;;14.20;12.13;;;24.80;83.80;;;;;;5074977;28;20048;-76
2021/07/02 10:26:05;;;;;;;15.35;11.50;;;24.60;84.10;;;;;;5072811;28;20055;-80
2021/07/02 10:28:32;;;;;;;15.98;12.95;;;24.50;84.50;;;;;;5091109;28;20027;-78
2021/07/02 10:30:59;;;;;;;17.35;12.43;;;24.40;84.80;;;;;;5089404;28;20031;-80
2021/07/02 10:33:27;;;;;;;16.95;13.18;;;24.30;84.70;;;;;;5094781;28;20055;-80
2021/07/02 10:36:00;;;;;;;14.95;12.52;;;24.20;85.00;;;;;;5079294;28;20146;-79
2021/07/02 10:38:44;;;;;;;19.20;14.20;;;24.10;85.20;;;;;;5077065;28;20055;-80
2021/07/02 10:41:27;;;;;;;17.40;14.07;;;24.10;85.70;;;;;;5088119;28;20037;-79
2021/07/02 10:44:10;;;;;;;17.00;13.20;;;24.10;85.70;;;;;;5064414;28;20040;-80
2021/07/02 10:46:59;;;;;;;18.10;13.40;;;24.10;86.00;;;;;;5049061;28;20047;-81
2021/07/02 10:49:39;;;;;;;15.95;12.90;;;24.10;86.20;;;;;;5087428;28;20032;-81
2021/07/02 10:52:35;;;;;;;16.10;12.90;;;24.10;86.50;;;;;;5072728;28;20045;-80
2021/07/02 10:55:05;;;;;;;17.02;13.27;;;24.20;86.30;;;;;;5076761;28;20051;-81
2021/07/02 10:57:31;;;;;;;14.85;11.38;;;24.20;86.00;;;;;;5070579;28;20048;-82
2021/07/02 11:00:03;;;;;;;15.60;12.52;;;24.10;86.80;;;;;;5063982;28;20141;-80
2021/07/02 11:02:30;;;;;;;14.90;11.93;;;24.10;86.00;;;;;;5076853;28;20051;-81
2021/07/02 11:04:59;;;;;;;16.83;12.15;;;24.00;86.30;;;;;;5067855;28;20055;-79
2021/07/02 11:07:26;;;;;;;12.48;9.20;;;23.80;86.30;;;;;;5094057;28;20505;-83
2021/07/02 11:09:53;;;;;;;10.90;9.60;;;23.70;86.30;;;;;;5074307;28;20040;-80
2021/07/02 11:12:21;;;;;;;13.30;11.05;;;23.50;86.60;;;;;;5072181;28;20601;-79
2021/07/02 11:14:54;;;;;;;16.58;11.18;;;23.40;86.70;;;;;;5092598;28;20032;-81
2021/07/02 11:17:39;;;;;;;11.27;10.18;;;23.40;86.90;;;;;;5064049;28;20040;-82
2021/07/02 11:20:17;;;;;;;12.68;10.25;;;23.50;86.80;;;;;;5056666;28;20056;-83
2021/07/02 11:23:06;;;;;;;14.43;10.80;;;23.50;87.10;;;;;;5087800;28;20036;-81
2021/07/02 11:25:42;;;;;;;15.25;12.70;;;23.70;87.70;;;;;;5064089;28;20486;-81
2021/07/02 11:28:12;;;;;;;14.68;11.18;;;23.90;87.10;;;;;;5079761;28;20046;-81
2021/07/02 11:30:41;;;;;;;15.20;11.57;;;23.80;86.70;;;;;;5052016;28;20040;-81
2021/07/02 11:33:11;;;;;;;14.20;10.73;;;23.70;86.80;;;;;;5070002;28;20035;-79
2021/07/02 11:35:43;;;;;;;13.13;9.55;;;23.60;86.80;;;;;;5058083;28;20055;-78
2021/07/02 11:38:19;;;;;;;14.27;10.68;;;23.60;87.20;;;;;;5072591;28;20047;-80
2021/07/02 11:41:04;;;;;;;12.55;10.18;;;23.60;87.10;;;;;;5073759;28;20059;-80
2021/07/02 11:43:39;;;;;;;13.77;10.90;;;23.50;87.00;;;;;;5073235;28;20029;-80
2021/07/02 11:46:10;;;;;;;13.35;9.10;;;23.40;87.00;;;;;;5073562;28;20047;-81
2021/07/02 11:48:39;;;;;;;12.27;9.93;;;23.30;87.80;;;;;;5047227;28;20050;-80
2021/07/02 11:51:08;;;;;;;14.93;11.27;;;23.40;88.30;;;;;;5055305;28;20039;-78
2021/07/02 11:53:37;;;;;;;12.52;9.48;;;23.50;87.90;;;;;;5081026;28;20036;-78
2021/07/02 11:56:15;;;;;;;11.90;9.75;;;23.60;87.40;;;;;;5077082;28;20062;-77
2021/07/02 11:58:46;;;;;;;19.60;13.52;;;23.50;87.60;;;;;;5062044;28;20043;-77
2021/07/02 12:01:16;;;;;;;13.63;11.40;;;23.50;87.30;;;;;;5052271;28;20044;-77
2021/07/02 12:03:49;;;;;;;12.77;10.32;;;23.40;87.90;;;;;;5079427;28;20044;-76
2021/07/02 12:06:26;;;;;;;12.85;9.93;;;23.30;88.50;;;;;;5053054;28;20049;-78
2021/07/02 12:08:54;;;;;;;14.55;10.40;;;23.30;88.90;;;;;;5057237;28;20051;-77
2021/07/02 12:11:32;;;;;;;12.77;10.10;;;23.20;89.20;;;;;;5069752;28;20379;-77
2021/07/02 12:14:00;;;;;;;15.77;11.50;;;23.10;89.50;;;;;;5059751;28;20041;-78
2021/07/02 12:16:28;;;;;;;15.25;11.60;;;23.00;89.50;;;;;;5050628;28;20238;-77
2021/07/02 12:18:55;;;;;;;16.95;11.57;;;22.90;90.00;;;;;;5072595;28;20047;-77
2021/07/02 12:21:28;;;;;;;11.68;9.38;;;22.80;90.10;;;;;;5066651;28;20570;-76
2021/07/02 12:23:58;;;;;;;13.13;10.45;;;22.80;90.30;;;;;;5034960;28;20059;-78
2021/07/02 12:26:27;;;;;;;13.57;9.93;;;22.90;90.30;;;;;;5047639;28;20040;-76
2021/07/02 12:29:04;;;;;;;10.07;8.43;;;23.00;90.20;;;;;;5059466;28;20044;-81
2021/07/02 12:31:31;;;;;;;10.57;6.90;;;23.10;90.10;;;;;;5061262;28;20367;-77
2021/07/02 12:33:58;;;;;;;8.63;6.60;;;23.30;90.10;;;;;;5069207;28;20036;-80
2021/07/02 12:36:27;;;;;;;11.88;7.88;;;23.50;90.10;;;;;;5060864;28;20051;-77
2021/07/02 12:38:57;;;;;;;9.52;7.15;;;23.50;89.40;;;;;;5054556;28;20044;-79
2021/07/02 12:41:24;;;;;;;9.80;6.97;;;23.60;89.60;;;;;;5055908;28;20051;-79
2021/07/02 12:43:50;;;;;;;9.35;6.90;;;23.60;89.50;;;;;;5074616;28;20052;-78
2021/07/02 12:46:17;;;;;;;7.65;6.75;;;23.60;89.70;;;;;;5066806;28;20049;-80
2021/07/02 12:48:43;;;;;;;8.85;7.45;;;23.50;89.80;;;;;;5033654;28;20044;-79
2021/07/02 12:51:10;;;;;;;6.97;5.78;;;23.50;89.90;;;;;;5079752;28;20041;-81
2021/07/02 12:56:22;;;;;;;8.98;7.22;;;23.60;89.80;;;;;;5065030;28;20048;-76
2021/07/02 12:58:48;;;;;;;7.20;6.53;;;23.70;89.10;;;;;;5051255;28;20051;-75
2021/07/02 13:01:14;;;;;;;9.05;7.22;;;23.70;89.10;;;;;;5032092;28;20048;-75
2021/07/02 13:03:41;;;;;;;7.25;6.43;;;23.80;88.60;;;;;;5068861;28;20044;-75
2021/07/02 13:06:15;;;;;;;6.35;5.70;;;23.90;88.60;;;;;;5070366;28;20072;-77
2021/07/02 13:08:42;;;;;;;6.28;5.45;;;23.90;88.80;;;;;;5052542;28;20574;-77
2021/07/02 13:11:19;;;;;;;8.75;6.80;;;24.10;88.50;;;;;;5039310;28;20567;-77
2021/07/02 13:13:46;;;;;;;8.73;6.13;;;24.20;87.80;;;;;;5087525;28;20044;-77
2021/07/02 13:16:12;;;;;;;7.53;6.53;;;24.30;87.20;;;;;;5017910;28;20063;-77
2021/07/02 13:18:53;;;;;;;6.63;5.93;;;24.50;86.80;;;;;;5063107;28;20051;-77
2021/07/02 13:21:32;;;;;;;7.50;6.65;;;24.50;85.50;;;;;;5046537;28;20044;-77
2021/07/02 13:24:01;;;;;;;6.00;5.15;;;24.40;85.70;;;;;;5055020;28;20050;-77